sensor_id;sensor_type;location;lat;lon;timestamp;P1;durP1;ratioP1;P2;durP2;ratioP2
11998;SDS011;40817;51.520;9.954;2023-06-22T00:01:53;11.20;;;8.65;;
11998;SDS011;40817;51.520;9.954;2023-06-22T00:04:22;11.82;;;9.32;;
11998;SDS011;40817;51.520;9.954;2023-06-22T00:06:49;12.73;;;8.77;;
11998;SDS011;40817;51.520;9.954;2023-06-22T00:09:17;13.77;;;8.73;;
11998;SDS011;40817;51.520;9.954;2023-06-22T00:11:45;11.90;;;9.63;;
11998;SDS011;40817;51.520;9.954;2023-06-22T00:14:12;11.40;;;9.15;;
11998;SDS011;40817;51.520;9.954;2023-06-22T00:16:40;12.15;;;9.23;;
11998;SDS011;40817;51.520;9.954;2023-06-22T00:19:08;13.40;;;9.25;;
11998;SDS011;40817;51.520;9.954;2023-06-22T00:21:38;12.60;;;8.65;;
11998;SDS011;40817;51.520;9.954;2023-06-22T00:24:05;11.18;;;9.18;;
11998;SDS011;40817;51.520;9.954;2023-06-22T00:26:33;11.57;;;8.63;;
11998;SDS011;40817;51.520;9.954;2023-06-22T00:29:00;10.13;;;8.05;;
11998;SDS011;40817;51.520;9.954;2023-06-22T00:31:28;9.52;;;8.52;;
11998;SDS011;40817;51.520;9.954;2023-06-22T00:33:56;13.07;;;9.30;;
11998;SDS011;40817;51.520;9.954;2023-06-22T00:36:23;13.50;;;8.55;;
11998;SDS011;40817;51.520;9.954;2023-06-22T00:38:52;14.20;;;9.75;;
11998;SDS011;40817;51.520;9.954;2023-06-22T00:41:20;11.40;;;9.25;;
11998;SDS011;40817;51.520;9.954;2023-06-22T00:43:47;12.13;;;10.30;;
11998;SDS011;40817;51.520;9.954;2023-06-22T00:46:15;10.73;;;9.60;;
11998;SDS011;40817;51.520;9.954;2023-06-22T00:48:42;12.60;;;9.18;;
11998;SDS011;40817;51.520;9.954;2023-06-22T00:51:11;11.45;;;8.90;;
11998;SDS011;40817;51.520;9.954;2023-06-22T00:53:38;11.57;;;9.20;;
11998;SDS011;40817;51.520;9.954;2023-06-22T00:56:07;10.93;;;9.43;;
11998;SDS011;40817;51.520;9.954;2023-06-22T00:58:37;11.18;;;9.25;;
11998;SDS011;40817;51.520;9.954;2023-06-22T01:01:06;13.43;;;9.32;;
11998;SDS011;40817;51.520;9.954;2023-06-22T01:03:34;14.40;;;9.80;;
11998;SDS011;40817;51.520;9.954;2023-06-22T01:06:05;12.68;;;9.77;;
11998;SDS011;40817;51.520;9.954;2023-06-22T01:08:42;12.82;;;10.20;;
11998;SDS011;40817;51.520;9.954;2023-06-22T01:11:22;11.27;;;9.35;;
11998;SDS011;40817;51.520;9.954;2023-06-22T01:14:00;12.77;;;10.18;;
11998;SDS011;40817;51.520;9.954;2023-06-22T01:16:34;12.45;;;8.82;;
11998;SDS011;40817;51.520;9.954;2023-06-22T01:19:09;12.25;;;9.05;;
11998;SDS011;40817;51.520;9.954;2023-06-22T01:22:00;11.75;;;8.90;;
11998;SDS011;40817;51.520;9.954;2023-06-22T01:24:30;11.50;;;8.55;;
11998;SDS011;40817;51.520;9.954;2023-06-22T01:27:23;10.18;;;8.45;;
11998;SDS011;40817;51.520;9.954;2023-06-22T01:30:08;11.38;;;9.45;;
11998;SDS011;40817;51.520;9.954;2023-06-22T01:32:37;12.75;;;9.65;;
11998;SDS011;40817;51.520;9.954;2023-06-22T01:35:07;14.35;;;8.90;;
11998;SDS011;40817;51.520;9.954;2023-06-22T01:37:36;11.88;;;9.25;;
11998;SDS011;40817;51.520;9.954;2023-06-22T01:40:05;10.63;;;8.18;;
11998;SDS011;40817;51.520;9.954;2023-06-22T01:42:35;12.05;;;9.02;;
11998;SDS011;40817;51.520;9.954;2023-06-22T01:45:04;10.43;;;8.80;;
11998;SDS011;40817;51.520;9.954;2023-06-22T01:47:36;9.50;;;7.97;;
11998;SDS011;40817;51.520;9.954;2023-06-22T01:50:05;9.23;;;7.57;;
11998;SDS011;40817;51.520;9.954;2023-06-22T01:52:35;10.68;;;8.27;;
11998;SDS011;40817;51.520;9.954;2023-06-22T01:55:03;15.27;;;9.13;;
11998;SDS011;40817;51.520;9.954;2023-06-22T01:57:33;12.23;;;9.60;;
11998;SDS011;40817;51.520;9.954;2023-06-22T02:00:02;13.98;;;9.57;;
11998;SDS011;40817;51.520;9.954;2023-06-22T02:02:36;14.45;;;9.52;;
11998;SDS011;40817;51.520;9.954;2023-06-22T02:05:15;12.65;;;10.07;;
11998;SDS011;40817;51.520;9.954;2023-06-22T02:07:46;14.90;;;9.98;;
11998;SDS011;40817;51.520;9.954;2023-06-22T02:10:23;20.42;;;10.93;;
11998;SDS011;40817;51.520;9.954;2023-06-22T02:12:53;14.45;;;10.13;;
11998;SDS011;40817;51.520;9.954;2023-06-22T02:15:23;14.75;;;10.75;;
11998;SDS011;40817;51.520;9.954;2023-06-22T02:17:53;16.40;;;12.18;;
11998;SDS011;40817;51.520;9.954;2023-06-22T02:20:20;19.95;;;13.48;;
11998;SDS011;40817;51.520;9.954;2023-06-22T02:22:49;21.42;;;15.43;;
11998;SDS011;40817;51.520;9.954;2023-06-22T02:25:17;17.05;;;13.70;;
11998;SDS011;40817;51.520;9.954;2023-06-22T02:27:45;19.83;;;12.63;;
11998;SDS011;40817;51.520;9.954;2023-06-22T02:30:13;17.40;;;12.13;;
11998;SDS011;40817;51.520;9.954;2023-06-22T02:32:41;16.38;;;12.48;;
11998;SDS011;40817;51.520;9.954;2023-06-22T02:35:10;18.63;;;12.20;;
11998;SDS011;40817;51.520;9.954;2023-06-22T02:37:38;16.27;;;11.57;;
11998;SDS011;40817;51.520;9.954;2023-06-22T02:40:08;18.05;;;11.73;;
11998;SDS011;40817;51.520;9.954;2023-06-22T02:42:36;17.48;;;11.07;;
11998;SDS011;40817;51.520;9.954;2023-06-22T02:45:06;14.80;;;11.43;;
11998;SDS011;40817;51.520;9.954;2023-06-22T02:47:35;15.20;;;11.57;;
11998;SDS011;40817;51.520;9.954;2023-06-22T02:50:03;17.25;;;11.23;;
11998;SDS011;40817;51.520;9.954;2023-06-22T02:52:33;20.10;;;11.02;;
11998;SDS011;40817;51.520;9.954;2023-06-22T02:55:00;19.20;;;11.52;;
11998;SDS011;40817;51.520;9.954;2023-06-22T02:57:29;15.80;;;11.70;;
11998;SDS011;40817;51.520;9.954;2023-06-22T02:59:57;14.77;;;12.15;;
11998;SDS011;40817;51.520;9.954;2023-06-22T03:02:24;18.83;;;12.07;;
11998;SDS011;40817;51.520;9.954;2023-06-22T03:05:13;15.32;;;11.50;;
11998;SDS011;40817;51.520;9.954;2023-06-22T03:08:04;16.08;;;12.00;;
11998;SDS011;40817;51.520;9.954;2023-06-22T03:10:33;17.35;;;12.43;;
11998;SDS011;40817;51.520;9.954;2023-06-22T03:13:01;16.58;;;11.77;;
11998;SDS011;40817;51.520;9.954;2023-06-22T03:15:28;17.15;;;12.18;;
11998;SDS011;40817;51.520;9.954;2023-06-22T03:17:57;17.70;;;11.90;;
11998;SDS011;40817;51.520;9.954;2023-06-22T03:20:24;15.43;;;11.75;;
11998;SDS011;40817;51.520;9.954;2023-06-22T03:22:59;16.98;;;11.38;;
11998;SDS011;40817;51.520;9.954;2023-06-22T03:25:28;16.45;;;12.32;;
11998;SDS011;40817;51.520;9.954;2023-06-22T03:27:55;21.75;;;13.20;;
11998;SDS011;40817;51.520;9.954;2023-06-22T03:30:23;17.13;;;12.60;;
11998;SDS011;40817;51.520;9.954;2023-06-22T03:32:50;17.95;;;13.63;;
11998;SDS011;40817;51.520;9.954;2023-06-22T03:35:19;18.92;;;13.73;;
11998;SDS011;40817;51.520;9.954;2023-06-22T03:37:47;22.17;;;12.43;;
11998;SDS011;40817;51.520;9.954;2023-06-22T03:40:15;17.08;;;12.40;;
11998;SDS011;40817;51.520;9.954;2023-06-22T03:42:44;18.58;;;12.27;;
11998;SDS011;40817;51.520;9.954;2023-06-22T03:45:12;17.90;;;10.88;;
11998;SDS011;40817;51.520;9.954;2023-06-22T03:47:40;14.60;;;10.73;;
11998;SDS011;40817;51.520;9.954;2023-06-22T03:50:08;12.38;;;10.57;;
11998;SDS011;40817;51.520;9.954;2023-06-22T03:52:36;18.67;;;10.20;;
11998;SDS011;40817;51.520;9.954;2023-06-22T03:55:04;18.67;;;10.45;;
11998;SDS011;40817;51.520;9.954;2023-06-22T03:57:33;11.70;;;9.23;;
11998;SDS011;40817;51.520;9.954;2023-06-22T04:00:03;16.30;;;11.15;;
11998;SDS011;40817;51.520;9.954;2023-06-22T04:02:33;13.45;;;9.32;;
11998;SDS011;40817;51.520;9.954;2023-06-22T04:05:00;17.10;;;10.57;;
11998;SDS011;40817;51.520;9.954;2023-06-22T04:07:28;14.80;;;10.32;;
11998;SDS011;40817;51.520;9.954;2023-06-22T04:09:55;13.32;;;9.98;;
11998;SDS011;40817;51.520;9.954;2023-06-22T04:12:23;18.77;;;9.65;;
11998;SDS011;40817;51.520;9.954;2023-06-22T04:14:51;13.00;;;9.88;;
11998;SDS011;40817;51.520;9.954;2023-06-22T04:17:19;12.02;;;10.27;;
11998;SDS011;40817;51.520;9.954;2023-06-22T04:19:50;12.05;;;9.90;;
11998;SDS011;40817;51.520;9.954;2023-06-22T04:22:19;14.48;;;10.27;;
11998;SDS011;40817;51.520;9.954;2023-06-22T04:24:46;14.88;;;10.60;;
11998;SDS011;40817;51.520;9.954;2023-06-22T04:27:14;12.07;;;10.30;;
11998;SDS011;40817;51.520;9.954;2023-06-22T04:29:41;13.70;;;10.68;;
11998;SDS011;40817;51.520;9.954;2023-06-22T04:32:14;15.68;;;10.27;;
11998;SDS011;40817;51.520;9.954;2023-06-22T04:34:43;15.43;;;11.43;;
11998;SDS011;40817;51.520;9.954;2023-06-22T04:37:11;17.80;;;10.75;;
11998;SDS011;40817;51.520;9.954;2023-06-22T04:39:41;12.25;;;10.68;;
11998;SDS011;40817;51.520;9.954;2023-06-22T04:42:09;14.27;;;11.50;;
11998;SDS011;40817;51.520;9.954;2023-06-22T04:44:36;15.73;;;11.10;;
11998;SDS011;40817;51.520;9.954;2023-06-22T04:47:05;14.18;;;11.27;;
11998;SDS011;40817;51.520;9.954;2023-06-22T04:49:36;15.07;;;12.50;;
11998;SDS011;40817;51.520;9.954;2023-06-22T04:52:07;18.17;;;12.00;;
11998;SDS011;40817;51.520;9.954;2023-06-22T04:54:39;17.58;;;11.10;;
11998;SDS011;40817;51.520;9.954;2023-06-22T04:57:12;13.40;;;10.55;;
11998;SDS011;40817;51.520;9.954;2023-06-22T04:59:41;15.65;;;11.93;;
11998;SDS011;40817;51.520;9.954;2023-06-22T05:02:09;17.30;;;12.20;;
11998;SDS011;40817;51.520;9.954;2023-06-22T05:04:37;16.58;;;12.05;;
11998;SDS011;40817;51.520;9.954;2023-06-22T05:07:04;15.10;;;11.27;;
11998;SDS011;40817;51.520;9.954;2023-06-22T05:09:34;21.33;;;12.60;;
11998;SDS011;40817;51.520;9.954;2023-06-22T05:12:02;14.90;;;11.07;;
11998;SDS011;40817;51.520;9.954;2023-06-22T05:14:31;21.15;;;13.10;;
11998;SDS011;40817;51.520;9.954;2023-06-22T05:16:59;16.65;;;12.30;;
11998;SDS011;40817;51.520;9.954;2023-06-22T05:19:29;21.85;;;13.77;;
11998;SDS011;40817;51.520;9.954;2023-06-22T05:21:58;18.40;;;13.68;;
11998;SDS011;40817;51.520;9.954;2023-06-22T05:24:27;17.40;;;12.98;;
11998;SDS011;40817;51.520;9.954;2023-06-22T05:26:55;19.70;;;13.50;;
11998;SDS011;40817;51.520;9.954;2023-06-22T05:29:23;19.30;;;13.88;;
11998;SDS011;40817;51.520;9.954;2023-06-22T05:31:52;24.92;;;14.35;;
11998;SDS011;40817;51.520;9.954;2023-06-22T05:34:20;20.75;;;15.98;;
11998;SDS011;40817;51.520;9.954;2023-06-22T05:36:48;20.63;;;15.70;;
11998;SDS011;40817;51.520;9.954;2023-06-22T05:39:15;23.80;;;16.05;;
11998;SDS011;40817;51.520;9.954;2023-06-22T05:41:44;19.90;;;14.18;;
11998;SDS011;40817;51.520;9.954;2023-06-22T05:44:13;22.70;;;15.55;;
11998;SDS011;40817;51.520;9.954;2023-06-22T05:46:41;21.08;;;15.13;;
11998;SDS011;40817;51.520;9.954;2023-06-22T05:49:12;19.63;;;14.45;;
11998;SDS011;40817;51.520;9.954;2023-06-22T05:51:40;18.02;;;14.50;;
11998;SDS011;40817;51.520;9.954;2023-06-22T05:54:08;18.65;;;15.10;;
11998;SDS011;40817;51.520;9.954;2023-06-22T05:56:35;20.45;;;15.60;;
11998;SDS011;40817;51.520;9.954;2023-06-22T05:59:04;23.25;;;16.67;;
11998;SDS011;40817;51.520;9.954;2023-06-22T06:01:32;22.13;;;15.65;;
11998;SDS011;40817;51.520;9.954;2023-06-22T06:04:01;23.50;;;16.40;;
11998;SDS011;40817;51.520;9.954;2023-06-22T06:06:29;18.90;;;14.98;;
11998;SDS011;40817;51.520;9.954;2023-06-22T06:08:57;23.83;;;15.48;;
11998;SDS011;40817;51.520;9.954;2023-06-22T06:11:25;22.63;;;15.63;;
11998;SDS011;40817;51.520;9.954;2023-06-22T06:13:52;24.25;;;15.20;;
11998;SDS011;40817;51.520;9.954;2023-06-22T06:16:22;20.55;;;15.82;;
11998;SDS011;40817;51.520;9.954;2023-06-22T06:18:50;22.15;;;15.15;;
11998;SDS011;40817;51.520;9.954;2023-06-22T06:21:20;19.60;;;15.35;;
11998;SDS011;40817;51.520;9.954;2023-06-22T06:23:48;24.80;;;16.63;;
11998;SDS011;40817;51.520;9.954;2023-06-22T06:26:15;20.42;;;16.33;;
11998;SDS011;40817;51.520;9.954;2023-06-22T06:28:43;22.60;;;15.70;;
11998;SDS011;40817;51.520;9.954;2023-06-22T06:31:12;28.65;;;15.85;;
11998;SDS011;40817;51.520;9.954;2023-06-22T06:33:43;18.67;;;15.27;;
11998;SDS011;40817;51.520;9.954;2023-06-22T06:36:11;27.00;;;15.57;;
11998;SDS011;40817;51.520;9.954;2023-06-22T06:38:39;22.52;;;15.00;;
11998;SDS011;40817;51.520;9.954;2023-06-22T06:41:06;20.30;;;14.40;;
11998;SDS011;40817;51.520;9.954;2023-06-22T06:43:34;17.08;;;14.25;;
11998;SDS011;40817;51.520;9.954;2023-06-22T06:46:01;26.35;;;14.57;;
11998;SDS011;40817;51.520;9.954;2023-06-22T06:48:29;18.83;;;14.80;;
11998;SDS011;40817;51.520;9.954;2023-06-22T06:50:59;27.50;;;15.10;;
11998;SDS011;40817;51.520;9.954;2023-06-22T06:53:26;17.38;;;13.57;;
11998;SDS011;40817;51.520;9.954;2023-06-22T06:55:54;22.33;;;13.30;;
11998;SDS011;40817;51.520;9.954;2023-06-22T06:58:22;19.30;;;14.68;;
11998;SDS011;40817;51.520;9.954;2023-06-22T07:00:50;19.52;;;13.82;;
11998;SDS011;40817;51.520;9.954;2023-06-22T07:03:17;19.88;;;13.57;;
11998;SDS011;40817;51.520;9.954;2023-06-22T07:05:45;22.83;;;14.45;;
11998;SDS011;40817;51.520;9.954;2023-06-22T07:08:14;15.88;;;13.40;;
11998;SDS011;40817;51.520;9.954;2023-06-22T07:10:41;17.65;;;13.82;;
11998;SDS011;40817;51.520;9.954;2023-06-22T07:13:09;21.05;;;13.98;;
11998;SDS011;40817;51.520;9.954;2023-06-22T07:15:37;21.40;;;13.98;;
11998;SDS011;40817;51.520;9.954;2023-06-22T07:18:04;24.20;;;13.65;;
11998;SDS011;40817;51.520;9.954;2023-06-22T07:20:32;18.10;;;13.40;;
11998;SDS011;40817;51.520;9.954;2023-06-22T07:23:00;15.80;;;11.70;;
11998;SDS011;40817;51.520;9.954;2023-06-22T07:25:30;18.00;;;13.00;;
11998;SDS011;40817;51.520;9.954;2023-06-22T07:27:58;18.83;;;13.70;;
11998;SDS011;40817;51.520;9.954;2023-06-22T07:30:28;18.20;;;13.25;;
11998;SDS011;40817;51.520;9.954;2023-06-22T07:32:56;20.52;;;12.95;;
11998;SDS011;40817;51.520;9.954;2023-06-22T07:35:29;16.02;;;11.60;;
11998;SDS011;40817;51.520;9.954;2023-06-22T07:37:57;15.07;;;12.50;;
11998;SDS011;40817;51.520;9.954;2023-06-22T07:40:25;16.25;;;12.55;;
11998;SDS011;40817;51.520;9.954;2023-06-22T07:42:54;19.80;;;11.55;;
11998;SDS011;40817;51.520;9.954;2023-06-22T07:45:22;17.65;;;11.63;;
11998;SDS011;40817;51.520;9.954;2023-06-22T07:47:49;19.15;;;12.68;;
11998;SDS011;40817;51.520;9.954;2023-06-22T07:50:17;15.38;;;12.05;;
11998;SDS011;40817;51.520;9.954;2023-06-22T07:52:44;19.30;;;12.13;;
11998;SDS011;40817;51.520;9.954;2023-06-22T07:55:13;17.90;;;11.95;;
11998;SDS011;40817;51.520;9.954;2023-06-22T07:57:41;16.90;;;11.73;;
11998;SDS011;40817;51.520;9.954;2023-06-22T08:00:10;16.55;;;11.55;;
11998;SDS011;40817;51.520;9.954;2023-06-22T08:02:41;15.85;;;11.95;;
11998;SDS011;40817;51.520;9.954;2023-06-22T08:05:11;16.58;;;13.30;;
11998;SDS011;40817;51.520;9.954;2023-06-22T08:07:39;16.30;;;11.75;;
11998;SDS011;40817;51.520;9.954;2023-06-22T08:10:10;18.27;;;11.77;;
11998;SDS011;40817;51.520;9.954;2023-06-22T08:12:38;13.02;;;11.05;;
11998;SDS011;40817;51.520;9.954;2023-06-22T08:15:06;12.80;;;9.30;;
11998;SDS011;40817;51.520;9.954;2023-06-22T08:17:36;11.15;;;8.75;;
11998;SDS011;40817;51.520;9.954;2023-06-22T08:20:04;10.93;;;8.35;;
11998;SDS011;40817;51.520;9.954;2023-06-22T08:22:37;11.35;;;8.75;;
11998;SDS011;40817;51.520;9.954;2023-06-22T08:25:06;14.00;;;10.13;;
11998;SDS011;40817;51.520;9.954;2023-06-22T08:27:35;15.68;;;10.25;;
11998;SDS011;40817;51.520;9.954;2023-06-22T08:30:03;11.55;;;9.75;;
11998;SDS011;40817;51.520;9.954;2023-06-22T08:32:34;9.88;;;7.53;;
11998;SDS011;40817;51.520;9.954;2023-06-22T08:35:02;10.52;;;7.80;;
11998;SDS011;40817;51.520;9.954;2023-06-22T08:37:33;9.27;;;7.70;;
11998;SDS011;40817;51.520;9.954;2023-06-22T08:40:03;8.82;;;7.90;;
11998;SDS011;40817;51.520;9.954;2023-06-22T08:42:35;8.82;;;7.88;;
11998;SDS011;40817;51.520;9.954;2023-06-22T08:45:03;9.05;;;7.88;;
11998;SDS011;40817;51.520;9.954;2023-06-22T08:47:32;10.27;;;7.80;;
11998;SDS011;40817;51.520;9.954;2023-06-22T08:50:01;9.88;;;8.00;;
11998;SDS011;40817;51.520;9.954;2023-06-22T08:52:29;12.77;;;8.20;;
11998;SDS011;40817;51.520;9.954;2023-06-22T08:54:57;9.60;;;7.43;;
11998;SDS011;40817;51.520;9.954;2023-06-22T08:57:25;9.95;;;7.82;;
11998;SDS011;40817;51.520;9.954;2023-06-22T08:59:53;10.30;;;8.45;;
11998;SDS011;40817;51.520;9.954;2023-06-22T09:02:23;9.93;;;8.27;;
11998;SDS011;40817;51.520;9.954;2023-06-22T09:04:52;9.48;;;7.70;;
11998;SDS011;40817;51.520;9.954;2023-06-22T09:07:21;11.40;;;8.10;;
11998;SDS011;40817;51.520;9.954;2023-06-22T09:09:49;8.93;;;7.35;;
11998;SDS011;40817;51.520;9.954;2023-06-22T09:12:17;8.57;;;7.65;;
11998;SDS011;40817;51.520;9.954;2023-06-22T09:14:45;10.45;;;7.97;;
11998;SDS011;40817;51.520;9.954;2023-06-22T09:17:13;10.48;;;9.38;;
11998;SDS011;40817;51.520;9.954;2023-06-22T09:19:40;9.23;;;8.32;;
11998;SDS011;40817;51.520;9.954;2023-06-22T09:22:09;10.63;;;8.30;;
11998;SDS011;40817;51.520;9.954;2023-06-22T09:24:37;8.63;;;7.72;;
11998;SDS011;40817;51.520;9.954;2023-06-22T09:27:05;9.82;;;7.75;;
11998;SDS011;40817;51.520;9.954;2023-06-22T09:29:33;11.77;;;8.00;;
11998;SDS011;40817;51.520;9.954;2023-06-22T09:32:00;10.48;;;8.23;;
11998;SDS011;40817;51.520;9.954;2023-06-22T09:34:28;9.98;;;8.20;;
11998;SDS011;40817;51.520;9.954;2023-06-22T09:36:57;10.85;;;7.13;;
11998;SDS011;40817;51.520;9.954;2023-06-22T09:39:27;10.13;;;8.50;;
11998;SDS011;40817;51.520;9.954;2023-06-22T09:41:55;10.10;;;8.23;;
11998;SDS011;40817;51.520;9.954;2023-06-22T09:44:25;8.90;;;8.00;;
11998;SDS011;40817;51.520;9.954;2023-06-22T09:46:53;10.20;;;7.90;;
11998;SDS011;40817;51.520;9.954;2023-06-22T09:49:20;9.48;;;7.40;;
11998;SDS011;40817;51.520;9.954;2023-06-22T09:51:48;8.27;;;7.50;;
11998;SDS011;40817;51.520;9.954;2023-06-22T09:54:16;8.38;;;7.47;;
11998;SDS011;40817;51.520;9.954;2023-06-22T09:56:45;7.70;;;6.70;;
11998;SDS011;40817;51.520;9.954;2023-06-22T09:59:13;9.15;;;6.85;;
11998;SDS011;40817;51.520;9.954;2023-06-22T10:01:40;12.50;;;8.43;;
11998;SDS011;40817;51.520;9.954;2023-06-22T10:04:08;9.40;;;7.68;;
11998;SDS011;40817;51.520;9.954;2023-06-22T10:06:35;9.95;;;7.80;;
11998;SDS011;40817;51.520;9.954;2023-06-22T10:09:06;8.77;;;6.97;;
11998;SDS011;40817;51.520;9.954;2023-06-22T10:11:34;11.18;;;7.85;;
11998;SDS011;40817;51.520;9.954;2023-06-22T10:14:03;9.13;;;7.70;;
11998;SDS011;40817;51.520;9.954;2023-06-22T10:16:31;10.02;;;6.97;;
11998;SDS011;40817;51.520;9.954;2023-06-22T10:19:01;9.73;;;6.95;;
11998;SDS011;40817;51.520;9.954;2023-06-22T10:21:28;14.68;;;7.65;;
11998;SDS011;40817;51.520;9.954;2023-06-22T10:23:56;8.60;;;7.00;;
11998;SDS011;40817;51.520;9.954;2023-06-22T10:26:27;8.38;;;6.63;;
11998;SDS011;40817;51.520;9.954;2023-06-22T10:28:57;7.82;;;7.03;;
11998;SDS011;40817;51.520;9.954;2023-06-22T10:31:26;9.75;;;6.95;;
11998;SDS011;40817;51.520;9.954;2023-06-22T10:33:55;7.80;;;6.60;;
11998;SDS011;40817;51.520;9.954;2023-06-22T10:36:22;8.32;;;6.28;;
11998;SDS011;40817;51.520;9.954;2023-06-22T10:38:50;8.93;;;7.00;;
11998;SDS011;40817;51.520;9.954;2023-06-22T10:41:18;8.48;;;6.45;;
11998;SDS011;40817;51.520;9.954;2023-06-22T10:43:46;7.78;;;5.88;;
11998;SDS011;40817;51.520;9.954;2023-06-22T10:46:14;7.65;;;5.88;;
11998;SDS011;40817;51.520;9.954;2023-06-22T10:48:43;8.50;;;6.68;;
11998;SDS011;40817;51.520;9.954;2023-06-22T10:51:11;8.82;;;6.60;;
11998;SDS011;40817;51.520;9.954;2023-06-22T10:53:38;7.30;;;6.10;;
11998;SDS011;40817;51.520;9.954;2023-06-22T10:56:06;7.00;;;6.13;;
11998;SDS011;40817;51.520;9.954;2023-06-22T10:58:34;7.65;;;6.40;;
11998;SDS011;40817;51.520;9.954;2023-06-22T11:01:01;7.97;;;6.03;;
11998;SDS011;40817;51.520;9.954;2023-06-22T11:03:29;7.72;;;6.30;;
11998;SDS011;40817;51.520;9.954;2023-06-22T11:05:58;6.97;;;6.28;;
11998;SDS011;40817;51.520;9.954;2023-06-22T11:08:25;9.40;;;6.50;;
11998;SDS011;40817;51.520;9.954;2023-06-22T11:10:53;8.45;;;5.97;;
11998;SDS011;40817;51.520;9.954;2023-06-22T11:13:20;7.22;;;6.00;;
11998;SDS011;40817;51.520;9.954;2023-06-22T11:15:48;6.32;;;5.72;;
11998;SDS011;40817;51.520;9.954;2023-06-22T11:18:16;8.68;;;5.68;;
11998;SDS011;40817;51.520;9.954;2023-06-22T11:20:43;9.00;;;6.13;;
11998;SDS011;40817;51.520;9.954;2023-06-22T11:23:28;9.63;;;6.43;;
11998;SDS011;40817;51.520;9.954;2023-06-22T11:25:56;9.13;;;6.72;;
11998;SDS011;40817;51.520;9.954;2023-06-22T11:28:23;10.13;;;6.38;;
11998;SDS011;40817;51.520;9.954;2023-06-22T11:30:52;10.63;;;7.43;;
11998;SDS011;40817;51.520;9.954;2023-06-22T11:33:19;10.02;;;7.22;;
11998;SDS011;40817;51.520;9.954;2023-06-22T11:35:47;8.70;;;6.65;;
11998;SDS011;40817;51.520;9.954;2023-06-22T11:38:14;7.45;;;6.63;;
11998;SDS011;40817;51.520;9.954;2023-06-22T11:40:44;7.72;;;6.35;;
11998;SDS011;40817;51.520;9.954;2023-06-22T11:43:12;7.93;;;6.53;;
11998;SDS011;40817;51.520;9.954;2023-06-22T11:45:40;7.20;;;6.50;;
11998;SDS011;40817;51.520;9.954;2023-06-22T11:48:08;8.13;;;6.75;;
11998;SDS011;40817;51.520;9.954;2023-06-22T11:50:35;6.93;;;5.90;;
11998;SDS011;40817;51.520;9.954;2023-06-22T11:53:03;8.38;;;6.70;;
11998;SDS011;40817;51.520;9.954;2023-06-22T11:55:31;7.85;;;6.22;;
11998;SDS011;40817;51.520;9.954;2023-06-22T11:58:00;8.68;;;6.15;;
11998;SDS011;40817;51.520;9.954;2023-06-22T12:00:29;7.28;;;6.57;;
11998;SDS011;40817;51.520;9.954;2023-06-22T12:02:58;6.70;;;5.80;;
11998;SDS011;40817;51.520;9.954;2023-06-22T12:05:25;6.25;;;5.60;;
11998;SDS011;40817;51.520;9.954;2023-06-22T12:07:53;7.90;;;5.90;;
11998;SDS011;40817;51.520;9.954;2023-06-22T12:10:21;6.65;;;5.70;;
11998;SDS011;40817;51.520;9.954;2023-06-22T12:12:50;8.00;;;6.32;;
11998;SDS011;40817;51.520;9.954;2023-06-22T12:15:19;8.45;;;5.70;;
11998;SDS011;40817;51.520;9.954;2023-06-22T12:17:47;6.38;;;5.78;;
11998;SDS011;40817;51.520;9.954;2023-06-22T12:20:15;5.72;;;5.13;;
11998;SDS011;40817;51.520;9.954;2023-06-22T12:22:43;6.70;;;5.53;;
11998;SDS011;40817;51.520;9.954;2023-06-22T12:25:11;7.85;;;5.30;;
11998;SDS011;40817;51.520;9.954;2023-06-22T12:27:39;5.75;;;5.15;;
11998;SDS011;40817;51.520;9.954;2023-06-22T12:30:08;6.93;;;5.35;;
11998;SDS011;40817;51.520;9.954;2023-06-22T12:32:38;8.48;;;5.28;;
11998;SDS011;40817;51.520;9.954;2023-06-22T12:35:06;7.05;;;5.20;;
11998;SDS011;40817;51.520;9.954;2023-06-22T12:37:39;6.38;;;5.47;;
11998;SDS011;40817;51.520;9.954;2023-06-22T12:40:08;6.38;;;5.47;;
11998;SDS011;40817;51.520;9.954;2023-06-22T12:42:37;7.47;;;5.18;;
11998;SDS011;40817;51.520;9.954;2023-06-22T12:45:05;6.53;;;5.60;;
11998;SDS011;40817;51.520;9.954;2023-06-22T12:47:35;7.05;;;5.15;;
11998;SDS011;40817;51.520;9.954;2023-06-22T12:50:04;9.43;;;5.60;;
11998;SDS011;40817;51.520;9.954;2023-06-22T12:52:36;7.28;;;5.38;;
11998;SDS011;40817;51.520;9.954;2023-06-22T12:55:06;6.68;;;6.00;;
11998;SDS011;40817;51.520;9.954;2023-06-22T12:57:35;6.32;;;5.72;;
11998;SDS011;40817;51.520;9.954;2023-06-22T13:00:03;8.50;;;5.47;;
11998;SDS011;40817;51.520;9.954;2023-06-22T13:02:35;10.98;;;5.72;;
11998;SDS011;40817;51.520;9.954;2023-06-22T13:05:04;7.57;;;6.05;;
11998;SDS011;40817;51.520;9.954;2023-06-22T13:07:34;6.78;;;5.28;;
11998;SDS011;40817;51.520;9.954;2023-06-22T13:10:02;7.45;;;5.70;;
11998;SDS011;40817;51.520;9.954;2023-06-22T13:12:31;7.68;;;6.07;;
11998;SDS011;40817;51.520;9.954;2023-06-22T13:14:58;6.30;;;5.70;;
11998;SDS011;40817;51.520;9.954;2023-06-22T13:17:28;7.32;;;6.03;;
11998;SDS011;40817;51.520;9.954;2023-06-22T13:19:55;6.65;;;5.95;;
11998;SDS011;40817;51.520;9.954;2023-06-22T13:22:28;7.10;;;6.30;;
11998;SDS011;40817;51.520;9.954;2023-06-22T13:24:58;7.68;;;5.78;;
11998;SDS011;40817;51.520;9.954;2023-06-22T13:27:26;6.70;;;5.82;;
11998;SDS011;40817;51.520;9.954;2023-06-22T13:29:54;8.52;;;6.75;;
11998;SDS011;40817;51.520;9.954;2023-06-22T13:32:21;8.32;;;6.35;;
11998;SDS011;40817;51.520;9.954;2023-06-22T13:34:49;6.63;;;5.95;;
11998;SDS011;40817;51.520;9.954;2023-06-22T13:37:18;8.10;;;6.97;;
11998;SDS011;40817;51.520;9.954;2023-06-22T13:39:47;8.40;;;7.50;;
11998;SDS011;40817;51.520;9.954;2023-06-22T13:42:15;7.50;;;6.70;;
11998;SDS011;40817;51.520;9.954;2023-06-22T13:44:43;9.63;;;7.05;;
11998;SDS011;40817;51.520;9.954;2023-06-22T13:47:10;8.88;;;7.00;;
11998;SDS011;40817;51.520;9.954;2023-06-22T13:49:38;11.43;;;6.72;;
11998;SDS011;40817;51.520;9.954;2023-06-22T13:52:06;7.47;;;6.78;;
11998;SDS011;40817;51.520;9.954;2023-06-22T13:54:38;9.88;;;7.05;;
11998;SDS011;40817;51.520;9.954;2023-06-22T13:57:07;8.40;;;7.35;;
11998;SDS011;40817;51.520;9.954;2023-06-22T13:59:34;8.57;;;7.28;;
11998;SDS011;40817;51.520;9.954;2023-06-22T14:02:02;9.30;;;7.00;;
11998;SDS011;40817;51.520;9.954;2023-06-22T14:04:31;9.57;;;7.47;;
11998;SDS011;40817;51.520;9.954;2023-06-22T14:06:59;11.32;;;7.05;;
11998;SDS011;40817;51.520;9.954;2023-06-22T14:09:26;8.57;;;7.68;;
11998;SDS011;40817;51.520;9.954;2023-06-22T14:11:54;8.10;;;6.90;;
11998;SDS011;40817;51.520;9.954;2023-06-22T14:14:23;8.88;;;6.85;;
11998;SDS011;40817;51.520;9.954;2023-06-22T14:16:52;9.93;;;7.07;;
11998;SDS011;40817;51.520;9.954;2023-06-22T14:19:19;9.90;;;7.82;;
11998;SDS011;40817;51.520;9.954;2023-06-22T14:21:47;9.45;;;7.28;;
11998;SDS011;40817;51.520;9.954;2023-06-22T14:24:14;11.05;;;7.85;;
11998;SDS011;40817;51.520;9.954;2023-06-22T14:26:42;10.90;;;7.25;;
11998;SDS011;40817;51.520;9.954;2023-06-22T14:29:09;8.90;;;8.00;;
11998;SDS011;40817;51.520;9.954;2023-06-22T14:31:38;9.38;;;6.90;;
11998;SDS011;40817;51.520;9.954;2023-06-22T14:34:06;10.48;;;7.95;;
11998;SDS011;40817;51.520;9.954;2023-06-22T14:36:33;13.77;;;7.28;;
11998;SDS011;40817;51.520;9.954;2023-06-22T14:39:01;9.02;;;7.97;;
11998;SDS011;40817;51.520;9.954;2023-06-22T14:41:29;8.13;;;7.32;;
11998;SDS011;40817;51.520;9.954;2023-06-22T14:44:00;11.15;;;8.07;;